createdAt,value
2018-04-02T00:00:24.587Z,99.90
2018-04-02T00:02:51.275Z,99.90
2018-04-02T00:05:17.587Z,99.90
2018-04-02T00:07:44.006Z,99.90
2018-04-02T00:10:11.114Z,99.90
2018-04-02T00:12:38.367Z,99.90
2018-04-02T00:15:05.619Z,99.90
2018-04-02T00:17:31.947Z,99.90
2018-04-02T00:19:58.295Z,99.90
2018-04-02T00:22:25.449Z,99.90
2018-04-02T00:24:51.756Z,99.90
2018-04-02T00:27:18.072Z,99.90
2018-04-02T00:29:45.379Z,99.90
2018-04-02T00:32:11.691Z,99.90
2018-04-02T00:34:38.763Z,99.90
2018-04-02T00:37:06.230Z,99.90
2018-04-02T00:39:32.567Z,99.90
2018-04-02T00:41:59.726Z,99.90
2018-04-02T00:44:26.951Z,99.90
2018-04-02T00:46:54.035Z,99.90
2018-04-02T00:49:21.704Z,99.90
2018-04-02T00:51:48.003Z,99.90
2018-04-02T00:54:15.191Z,99.90
2018-04-02T00:56:41.499Z,99.90
2018-04-02T00:59:07.810Z,99.90
2018-04-02T01:01:35.219Z,99.90
2018-04-02T01:04:01.543Z,99.90
2018-04-02T01:06:29.434Z,99.90
2018-04-02T01:08:55.746Z,99.90
2018-04-02T01:11:24.768Z,99.90
2018-04-02T01:13:51.075Z,99.90
2018-04-02T01:16:17.383Z,99.90
2018-04-02T01:18:44.665Z,99.90
2018-04-02T01:21:11.811Z,99.90
2018-04-02T01:23:38.179Z,99.90
2018-04-02T01:26:04.531Z,99.90
2018-04-02T01:28:33.619Z,99.90
2018-04-02T01:30:59.962Z,99.90
2018-04-02T01:33:27.315Z,99.90
2018-04-02T01:35:53.629Z,99.90
2018-04-02T01:38:20.715Z,99.90
2018-04-02T01:40:47.770Z,99.90
2018-04-02T01:43:15.563Z,99.90
2018-04-02T01:45:44.329Z,99.90
2018-04-02T01:48:11.480Z,99.90
2018-04-02T01:50:37.791Z,99.90
2018-04-02T01:53:04.111Z,99.90
2018-04-02T01:55:31.411Z,99.90
2018-04-02T01:57:57.739Z,99.90
2018-04-02T02:00:24.080Z,99.90
2018-04-02T02:02:50.835Z,99.90
2018-04-02T02:05:17.983Z,99.90
2018-04-02T02:07:44.321Z,99.90
2018-04-02T02:10:11.571Z,99.90
2018-04-02T02:12:38.623Z,99.90
2018-04-02T02:15:04.939Z,99.90
2018-04-02T02:17:32.023Z,99.90
2018-04-02T02:19:59.071Z,99.90
2018-04-02T02:22:25.411Z,99.90
2018-04-02T02:24:51.716Z,99.90
2018-04-02T02:27:18.391Z,99.90
2018-04-02T02:29:44.714Z,99.90
2018-04-02T02:32:11.115Z,99.90
2018-04-02T02:34:38.236Z,99.90
2018-04-02T02:37:05.575Z,99.90
2018-04-02T02:39:31.896Z,99.90
2018-04-02T02:41:58.244Z,99.90
2018-04-02T02:44:25.554Z,99.90
2018-04-02T02:46:53.421Z,99.90
2018-04-02T02:49:20.475Z,99.90
2018-04-02T02:51:47.580Z,99.90
2018-04-02T02:54:14.995Z,99.90
2018-04-02T02:56:41.308Z,99.90
2018-04-02T02:59:08.357Z,99.90
2018-04-02T03:01:36.001Z,99.90
2018-04-02T03:04:02.695Z,99.90
2018-04-02T03:06:29.800Z,99.90
2018-04-02T03:08:56.099Z,99.90
2018-04-02T03:11:23.691Z,99.90
2018-04-02T03:13:50.059Z,99.90
2018-04-02T03:16:18.111Z,99.90
2018-04-02T03:18:44.421Z,99.90
2018-04-02T03:21:10.742Z,99.90
2018-04-02T03:23:37.426Z,99.90
2018-04-02T03:26:03.736Z,99.90
2018-04-02T03:28:30.118Z,99.90
2018-04-02T03:30:56.462Z,99.90
2018-04-02T03:33:23.437Z,99.90
2018-04-02T03:35:50.531Z,99.90
2018-04-02T03:38:17.697Z,99.90
2018-04-02T03:40:43.996Z,99.90
2018-04-02T03:43:11.116Z,99.90
2018-04-02T03:45:38.135Z,99.90
2018-04-02T03:48:05.186Z,99.90
2018-04-02T03:50:31.502Z,99.90
2018-04-02T03:52:57.801Z,99.90
2018-04-02T03:55:25.529Z,99.90
2018-04-02T03:57:51.840Z,99.90
2018-04-02T04:00:19.124Z,99.90
2018-04-02T04:02:45.438Z,99.90
2018-04-02T04:05:12.805Z,99.90
2018-04-02T04:07:39.120Z,99.90
2018-04-02T04:10:05.433Z,99.90
2018-04-02T04:12:33.260Z,99.90
2018-04-02T04:14:59.572Z,99.90
2018-04-02T04:17:25.921Z,99.90
2018-04-02T04:19:52.475Z,99.90
2018-04-02T04:22:18.788Z,99.90
2018-04-02T04:24:45.208Z,99.90
2018-04-02T04:27:11.846Z,99.90
2018-04-02T04:29:38.156Z,99.90
2018-04-02T04:32:04.451Z,99.90
2018-04-02T04:34:31.441Z,99.90
2018-04-02T04:36:59.388Z,99.90
2018-04-02T04:39:25.716Z,99.90
2018-04-02T04:41:52.034Z,99.90
2018-04-02T04:44:19.216Z,99.90
2018-04-02T04:46:46.575Z,99.90
2018-04-02T04:49:12.888Z,99.90
2018-04-02T04:51:39.200Z,99.90
2018-04-02T04:54:05.793Z,99.90
2018-04-02T04:56:32.964Z,99.90
2018-04-02T04:59:01.530Z,99.90
2018-04-02T05:01:29.404Z,99.90
2018-04-02T05:03:55.726Z,99.90
2018-04-02T05:06:22.044Z,99.90
2018-04-02T05:08:48.625Z,99.90
2018-04-02T05:11:15.977Z,99.90
2018-04-02T05:13:43.440Z,99.90
2018-04-02T05:16:09.750Z,99.90
2018-04-02T05:18:36.055Z,99.90
2018-04-02T05:21:03.473Z,99.90
2018-04-02T05:23:29.808Z,99.90
2018-04-02T05:25:56.240Z,99.90
2018-04-02T05:28:22.636Z,99.90
2018-04-02T05:30:49.681Z,99.90
2018-04-02T05:33:17.612Z,99.90
2018-04-02T05:35:43.927Z,99.90
2018-04-02T05:38:11.203Z,99.90
2018-04-02T05:40:37.519Z,99.90
2018-04-02T05:43:04.600Z,99.90
2018-04-02T05:45:32.368Z,99.90
2018-04-02T05:47:58.673Z,99.90
2018-04-02T05:50:25.756Z,99.90
2018-04-02T05:52:52.065Z,99.90
2018-04-02T05:55:19.244Z,99.90
2018-04-02T06:09:54.700Z,99.90
2018-04-02T06:12:21.746Z,99.90
2018-04-02T06:14:48.801Z,99.90
2018-04-02T06:17:16.161Z,99.90
2018-04-02T06:19:43.420Z,99.90
2018-04-02T06:22:10.369Z,99.90
2018-04-02T06:24:37.523Z,99.90
2018-04-02T06:27:04.676Z,99.90
2018-04-02T06:29:32.559Z,99.90
2018-04-02T06:32:01.339Z,99.90
2018-04-02T06:34:28.804Z,99.90
2018-04-02T06:36:55.930Z,99.90
2018-04-02T06:39:23.210Z,99.90
2018-04-02T06:41:50.268Z,99.90
2018-04-02T06:44:17.219Z,98.50
2018-04-02T06:46:44.681Z,99.00
2018-04-02T06:49:11.697Z,95.50
2018-04-02T06:51:39.615Z,96.40
2018-04-02T06:54:06.817Z,96.90
2018-04-02T06:56:33.956Z,95.50
2018-04-02T06:59:01.896Z,95.60
2018-04-02T07:01:29.978Z,95.60
2018-04-02T07:03:57.272Z,95.00
2018-04-02T07:06:25.106Z,91.60
2018-04-02T07:08:52.392Z,91.60
2018-04-02T07:11:20.225Z,91.80
2018-04-02T07:13:47.481Z,91.80
2018-04-02T07:16:14.945Z,91.70
2018-04-02T07:18:42.108Z,89.40
2018-04-02T07:21:09.156Z,89.70
2018-04-02T07:23:36.508Z,88.10
2018-04-02T07:26:03.769Z,89.00
2018-04-02T07:28:31.946Z,88.70
2018-04-02T07:30:59.231Z,88.50
2018-04-02T07:33:26.368Z,88.10
2018-04-02T07:35:53.513Z,88.80
2018-04-02T07:38:20.684Z,86.70
2018-04-02T07:40:47.849Z,85.00
2018-04-02T07:43:14.984Z,81.40
2018-04-02T07:45:42.239Z,81.10
2018-04-02T07:48:09.500Z,82.40
2018-04-02T07:50:36.571Z,83.60
2018-04-02T07:53:03.910Z,81.00
2018-04-02T07:55:31.065Z,79.90
2018-04-02T07:57:59.041Z,81.00
2018-04-02T08:00:26.504Z,80.30
2018-04-02T08:02:54.051Z,78.90
2018-04-02T08:05:22.039Z,76.60
2018-04-02T08:07:49.195Z,76.60
2018-04-02T08:10:16.456Z,77.40
2018-04-02T08:12:43.814Z,76.70
2018-04-02T08:15:10.988Z,76.40
2018-04-02T08:17:38.332Z,77.00
2018-04-02T08:20:06.413Z,76.50
2018-04-02T08:22:33.425Z,75.00
2018-04-02T08:25:00.436Z,74.80
2018-04-02T08:27:28.279Z,72.30
2018-04-02T08:29:55.428Z,72.00
2018-04-02T08:32:22.492Z,73.00
2018-04-02T08:34:49.587Z,74.70
2018-04-02T08:37:17.513Z,73.00
2018-04-02T08:39:44.668Z,73.00
2018-04-02T08:42:11.929Z,70.50
2018-04-02T08:44:39.178Z,71.10
2018-04-02T08:47:06.236Z,70.30
2018-04-02T08:49:33.297Z,68.80
2018-04-02T08:52:00.644Z,69.10
2018-04-02T08:54:28.009Z,68.00
2018-04-02T08:56:55.166Z,68.50
2018-04-02T08:59:22.215Z,70.20
2018-04-02T09:01:49.388Z,70.00
2018-04-02T09:04:17.449Z,67.60
2018-04-02T09:06:44.711Z,70.40
2018-04-02T09:09:11.762Z,66.20
2018-04-02T09:11:38.713Z,68.70
2018-04-02T09:14:06.074Z,66.00
2018-04-02T09:16:33.122Z,66.40
2018-04-02T09:19:00.195Z,66.00
2018-04-02T09:21:28.353Z,64.00
2018-04-02T09:23:55.820Z,64.10
2018-04-02T09:26:23.812Z,63.70
2018-04-02T09:28:50.945Z,63.10
2018-04-02T09:31:17.999Z,62.50
2018-04-02T09:33:45.227Z,61.60
2018-04-02T09:36:12.307Z,61.60
2018-04-02T09:38:39.444Z,62.70
2018-04-02T09:41:06.516Z,61.90
2018-04-02T09:43:33.672Z,58.50
2018-04-02T09:46:00.825Z,59.10
2018-04-02T09:48:27.981Z,58.70
2018-04-02T09:50:55.346Z,57.80
2018-04-02T09:53:22.702Z,57.40
2018-04-02T09:55:49.960Z,58.80
2018-04-02T09:58:17.332Z,58.10
2018-04-02T10:00:45.396Z,59.20
2018-04-02T10:03:12.636Z,57.00
2018-04-02T10:05:39.714Z,55.10
2018-04-02T10:08:06.860Z,58.40
2018-04-02T10:10:35.625Z,55.10
2018-04-02T10:13:02.817Z,57.30
2018-04-02T10:15:30.255Z,55.80
2018-04-02T10:17:58.145Z,56.60
2018-04-02T10:20:25.299Z,56.70
2018-04-02T10:22:52.444Z,56.70
2018-04-02T10:25:19.604Z,54.30
2018-04-02T10:27:46.760Z,53.80
2018-04-02T10:30:13.820Z,55.00
2018-04-02T10:32:40.976Z,54.00
2018-04-02T10:35:08.129Z,54.00
2018-04-02T10:37:35.382Z,53.20
2018-04-02T10:40:02.644Z,52.90
2018-04-02T10:42:29.692Z,53.70
2018-04-02T10:44:56.752Z,53.70
2018-04-02T10:47:24.924Z,52.10
2018-04-02T10:49:51.977Z,53.50
2018-04-02T10:52:19.756Z,55.10
2018-04-02T10:54:47.509Z,50.40
2018-04-02T10:57:14.613Z,50.40
2018-04-02T10:59:42.572Z,51.60
2018-04-02T11:02:11.164Z,49.90
2018-04-02T11:04:39.100Z,49.20
2018-04-02T11:07:06.659Z,49.30
2018-04-02T11:09:34.048Z,51.20
2018-04-02T11:12:01.185Z,47.30
2018-04-02T11:14:28.332Z,47.50
2018-04-02T11:16:56.516Z,50.70
2018-04-02T11:19:23.577Z,49.60
2018-04-02T11:21:50.716Z,49.60
2018-04-02T11:24:17.780Z,50.00
2018-04-02T11:26:44.932Z,47.90
2018-04-02T11:29:12.289Z,48.50
2018-04-02T11:31:39.344Z,49.00
2018-04-02T11:34:06.900Z,44.70
2018-04-02T11:36:33.865Z,47.00
2018-04-02T11:39:00.920Z,48.80
2018-04-02T11:41:28.268Z,48.80
2018-04-02T11:43:55.316Z,48.60
2018-04-02T11:46:22.376Z,45.40
2018-04-02T11:48:49.505Z,42.30
2018-04-02T11:51:16.894Z,45.20
2018-04-02T11:53:44.864Z,44.40
2018-04-02T11:56:12.023Z,42.50
2018-04-02T11:58:39.074Z,45.60
2018-04-02T12:01:06.441Z,45.00
2018-04-02T12:03:33.526Z,45.00
2018-04-02T12:06:01.845Z,44.20
2018-04-02T12:08:28.977Z,44.20
2018-04-02T12:10:56.312Z,44.20
2018-04-02T12:13:24.356Z,45.00
2018-04-02T12:15:51.616Z,44.30
2018-04-02T12:18:18.868Z,43.90
2018-04-02T12:20:46.033Z,43.50
2018-04-02T12:23:13.077Z,43.90
2018-04-02T12:25:40.240Z,41.70
2018-04-02T12:28:07.287Z,40.90
2018-04-02T12:30:34.844Z,39.90
2018-04-02T12:33:02.124Z,41.20
2018-04-02T12:35:29.113Z,39.20
2018-04-02T12:37:56.320Z,41.70
2018-04-02T12:40:23.784Z,42.00
2018-04-02T12:42:51.036Z,41.00
2018-04-02T12:45:18.816Z,42.00
2018-04-02T12:47:45.858Z,42.30
2018-04-02T12:50:12.916Z,41.40
2018-04-02T12:52:39.959Z,40.30
2018-04-02T12:55:07.273Z,40.60
2018-04-02T12:57:34.273Z,40.70
2018-04-02T13:00:01.432Z,40.10
2018-04-02T13:02:28.584Z,40.80
2018-04-02T13:04:55.639Z,40.50
2018-04-02T13:07:22.708Z,38.30
2018-04-02T13:09:49.852Z,35.80
2018-04-02T13:12:16.905Z,39.60
2018-04-02T13:14:43.954Z,38.80
2018-04-02T13:17:11.009Z,39.10
2018-04-02T13:19:38.241Z,36.20
2018-04-02T13:22:05.312Z,37.00
2018-04-02T13:24:32.468Z,36.60
2018-04-02T13:27:00.041Z,35.80
2018-04-02T13:29:27.091Z,36.60
2018-04-02T13:31:54.239Z,35.70
2018-04-02T13:34:21.405Z,37.30
2018-04-02T13:36:48.506Z,31.80
2018-04-02T13:39:15.818Z,32.30
2018-04-02T13:41:43.068Z,34.00
2018-04-02T13:44:10.422Z,35.40
2018-04-02T13:46:38.282Z,36.10
2018-04-02T13:49:05.348Z,37.00
2018-04-02T13:51:32.409Z,34.30
2018-04-02T13:53:59.562Z,36.10
2018-04-02T13:56:26.723Z,36.50
2018-04-02T13:58:53.868Z,32.60
2018-04-02T14:01:21.031Z,33.40
2018-04-02T14:03:48.284Z,33.70
2018-04-02T14:06:15.337Z,34.10
2018-04-02T14:08:42.392Z,34.40
2018-04-02T14:11:09.644Z,33.30
2018-04-02T14:13:36.698Z,37.00
2018-04-02T14:16:04.065Z,35.60
2018-04-02T14:18:31.112Z,35.80
2018-04-02T14:20:58.168Z,33.20
2018-04-02T14:23:25.322Z,32.80
2018-04-02T14:25:52.377Z,33.80
2018-04-02T14:28:19.428Z,32.30
2018-04-02T14:30:46.580Z,32.40
2018-04-02T14:33:13.740Z,29.70
2018-04-02T14:35:40.996Z,30.60
2018-04-02T14:38:08.247Z,31.00
2018-04-02T14:40:35.408Z,29.80
2018-04-02T14:43:02.668Z,29.10
2018-04-02T14:45:29.644Z,29.50
2018-04-02T14:47:58.108Z,29.00
2018-04-02T14:50:25.155Z,28.20
2018-04-02T14:52:52.318Z,28.20
2018-04-02T14:55:19.519Z,28.40
2018-04-02T14:57:47.644Z,29.00
2018-04-02T15:00:14.947Z,28.70
2018-04-02T15:02:42.876Z,25.80
2018-04-02T15:05:10.133Z,25.70
2018-04-02T15:07:37.900Z,28.90
2018-04-02T15:10:05.160Z,31.00
2018-04-02T15:12:32.412Z,30.20
2018-04-02T15:14:59.572Z,31.30
2018-04-02T15:17:26.905Z,31.10
2018-04-02T15:19:53.988Z,32.00
2018-04-02T15:22:21.253Z,32.10
2018-04-02T15:24:49.877Z,30.50
2018-04-02T15:27:16.980Z,30.50
2018-04-02T15:29:44.339Z,30.40
2018-04-02T15:32:11.600Z,31.20
2018-04-02T15:34:39.128Z,30.30
2018-04-02T15:37:06.529Z,30.10
2018-04-02T15:39:33.526Z,31.50
2018-04-02T15:42:00.732Z,30.20
2018-04-02T15:44:27.785Z,29.40
2018-04-02T15:46:54.945Z,30.10
2018-04-02T15:49:22.061Z,29.90
2018-04-02T15:51:49.395Z,30.30
2018-04-02T15:54:18.243Z,30.90
2018-04-02T15:56:45.442Z,30.70
2018-04-02T15:59:13.376Z,30.50
2018-04-02T16:01:40.435Z,30.50
2018-04-02T16:04:08.298Z,32.30
2018-04-02T16:06:35.354Z,33.20
2018-04-02T16:09:02.513Z,34.10
2018-04-02T16:11:29.508Z,35.90
2018-04-02T16:13:57.337Z,37.10
2018-04-02T16:16:24.328Z,37.20
2018-04-02T16:18:52.865Z,38.60
2018-04-02T16:21:20.018Z,38.70
2018-04-02T16:23:47.220Z,38.90
2018-04-02T16:26:15.066Z,39.80
2018-04-02T16:28:42.212Z,39.40
2018-04-02T16:31:09.257Z,39.60
2018-04-02T16:33:36.307Z,41.60
2018-04-02T16:36:03.781Z,41.50
2018-04-02T16:38:30.933Z,41.80
2018-04-02T16:40:58.080Z,42.40
2018-04-02T16:43:25.452Z,42.60
2018-04-02T16:45:53.393Z,42.50
2018-04-02T16:48:20.546Z,42.50
2018-04-02T16:50:47.728Z,43.00
2018-04-02T16:53:14.880Z,43.50
2018-04-02T16:55:42.050Z,43.90
2018-04-02T16:58:09.137Z,44.40
2018-04-02T17:00:36.970Z,45.80
2018-04-02T17:03:04.120Z,45.10
2018-04-02T17:05:30.436Z,45.70
2018-04-02T17:07:56.780Z,49.00
2018-04-02T17:10:23.345Z,45.10
2018-04-02T17:12:49.659Z,46.00
2018-04-02T17:15:16.725Z,45.80
2018-04-02T17:17:43.043Z,46.10
2018-04-02T17:20:09.376Z,46.40
2018-04-02T17:22:35.729Z,46.30
2018-04-02T17:25:02.056Z,46.30
2018-04-02T17:27:29.232Z,46.40
2018-04-02T17:29:55.560Z,46.70
2018-04-02T17:32:23.641Z,47.30
2018-04-02T17:34:49.945Z,47.90
2018-04-02T17:37:17.310Z,47.40
2018-04-02T17:39:44.279Z,47.70
2018-04-02T17:42:11.369Z,49.20
2018-04-02T17:44:39.210Z,48.90
2018-04-02T17:47:06.777Z,49.50
2018-04-02T17:49:33.105Z,48.60
2018-04-02T17:52:00.751Z,48.60
2018-04-02T17:54:27.122Z,48.70
2018-04-02T17:56:54.172Z,49.60
2018-04-02T17:59:20.486Z,48.90
2018-04-02T18:01:48.068Z,49.10
2018-04-02T18:04:14.383Z,50.00
2018-04-02T18:06:40.701Z,50.50
2018-04-02T18:09:07.701Z,50.60
2018-04-02T18:11:34.745Z,50.70
2018-04-02T18:14:01.796Z,51.00
2018-04-02T18:16:28.158Z,50.50
2018-04-02T18:18:54.481Z,50.50
2018-04-02T18:21:20.841Z,50.20
2018-04-02T18:23:48.876Z,51.10
2018-04-02T18:26:15.182Z,51.10
2018-04-02T18:28:42.497Z,50.90
2018-04-02T18:31:09.499Z,51.60
2018-04-02T18:33:35.818Z,50.70
2018-04-02T18:36:02.954Z,51.50
2018-04-02T18:38:30.065Z,51.80
2018-04-02T18:40:56.390Z,51.80
2018-04-02T18:43:23.673Z,51.20
2018-04-02T18:45:50.937Z,51.30
2018-04-02T18:48:18.087Z,51.80
2018-04-02T18:50:44.407Z,52.20
2018-04-02T18:53:11.512Z,52.60
2018-04-02T18:55:38.593Z,52.50
2018-04-02T18:58:05.653Z,52.60
2018-04-02T19:00:34.002Z,52.70
2018-04-02T19:03:01.216Z,52.50
2018-04-02T19:05:27.539Z,52.50
2018-04-02T19:07:53.863Z,52.30
2018-04-02T19:10:20.434Z,52.90
2018-04-02T19:12:48.339Z,52.80
2018-04-02T19:15:16.082Z,53.50
2018-04-02T19:17:43.120Z,53.50
2018-04-02T19:20:09.435Z,53.20
2018-04-02T19:22:36.513Z,53.10
2018-04-02T19:25:02.911Z,53.00
2018-04-02T19:27:30.044Z,53.50
2018-04-02T19:29:57.121Z,53.90
2018-04-02T19:32:24.112Z,54.00
2018-04-02T19:34:51.266Z,54.10
2018-04-02T19:37:17.578Z,54.40
2018-04-02T19:39:44.409Z,53.90
2018-04-02T19:42:11.092Z,54.20
2018-04-02T19:44:38.253Z,54.00
2018-04-02T19:47:06.027Z,54.60
2018-04-02T19:49:32.394Z,54.60
2018-04-02T19:52:00.753Z,54.70
2018-04-02T19:54:27.449Z,54.70
2018-04-02T19:56:54.712Z,54.90
2018-04-02T19:59:21.019Z,54.90
2018-04-02T20:01:49.060Z,55.10
2018-04-02T20:04:15.407Z,55.10
2018-04-02T20:06:41.826Z,55.30
2018-04-02T20:09:08.474Z,56.30
2018-04-02T20:11:35.725Z,55.60
2018-04-02T20:14:02.879Z,55.70
2018-04-02T20:16:29.221Z,55.70
2018-04-02T20:18:56.375Z,55.40
2018-04-02T20:21:22.815Z,55.50
2018-04-02T20:23:50.181Z,55.70
2018-04-02T20:26:16.510Z,55.10
2018-04-02T20:28:44.381Z,53.80
2018-04-02T20:31:12.257Z,54.60
2018-04-02T20:33:38.594Z,54.60
2018-04-02T20:36:04.938Z,55.10
2018-04-02T20:38:31.569Z,55.20
2018-04-02T20:40:58.825Z,55.10
2018-04-02T20:43:25.237Z,55.20
2018-04-02T20:45:52.316Z,55.30
2018-04-02T20:48:21.278Z,55.60
2018-04-02T20:50:48.572Z,55.20
2018-04-02T20:53:15.626Z,55.30
2018-04-02T20:55:42.628Z,55.60
2018-04-02T20:58:08.942Z,55.80
2018-04-02T21:00:36.035Z,55.40
2018-04-02T21:03:03.138Z,55.30
2018-04-02T21:05:29.489Z,55.60
2018-04-02T21:07:57.177Z,55.70
2018-04-02T21:10:23.972Z,55.60
2018-04-02T21:12:51.227Z,54.80
2018-04-02T21:15:18.386Z,55.20
2018-04-02T21:17:45.540Z,55.60
2018-04-02T21:20:11.868Z,55.20
2018-04-02T21:22:39.001Z,54.90
2018-04-02T21:25:05.314Z,54.40
2018-04-02T21:27:32.420Z,55.00
2018-04-02T21:29:58.757Z,54.90
2018-04-02T21:32:25.092Z,55.00
2018-04-02T21:34:51.732Z,54.80
2018-04-02T21:37:18.048Z,54.90
2018-04-02T21:39:44.548Z,54.90
2018-04-02T21:42:11.971Z,55.70
2018-04-02T21:44:39.089Z,55.70
2018-04-02T21:47:06.275Z,56.10
2018-04-02T21:49:32.596Z,55.60
2018-04-02T21:51:58.922Z,55.80
2018-04-02T21:54:26.212Z,55.70
2018-04-02T21:56:52.548Z,55.20
2018-04-02T21:59:18.867Z,55.30
2018-04-02T22:01:46.852Z,55.30
2018-04-02T22:04:13.167Z,55.50
2018-04-02T22:06:52.220Z,55.90
2018-04-02T22:09:18.528Z,55.80
2018-04-02T22:11:45.717Z,55.50
2018-04-02T22:14:12.972Z,55.50
2018-04-02T22:16:39.298Z,56.00
2018-04-02T22:19:06.360Z,56.50
2018-04-02T22:21:33.625Z,56.40
2018-04-02T22:24:00.982Z,56.40
2018-04-02T22:26:27.300Z,56.20
2018-04-02T22:28:54.468Z,56.10
2018-04-02T22:31:20.773Z,55.70
2018-04-02T22:33:47.101Z,55.80
2018-04-02T22:36:14.207Z,55.50
2018-04-02T22:38:40.620Z,55.90
2018-04-02T22:41:06.928Z,56.00
2018-04-02T22:43:35.179Z,55.30
2018-04-02T22:46:03.031Z,55.00
2018-04-02T22:48:31.201Z,54.30
2018-04-02T22:50:58.451Z,54.20
2018-04-02T22:53:25.713Z,54.90
2018-04-02T22:55:52.048Z,55.20
2018-04-02T22:58:18.364Z,54.90
2018-04-02T23:00:45.024Z,55.00
2018-04-02T23:03:12.283Z,54.60
2018-04-02T23:05:38.600Z,54.10
2018-04-02T23:08:04.924Z,53.90
2018-04-02T23:10:31.292Z,54.10
2018-04-02T23:12:58.353Z,54.50
2018-04-02T23:15:25.408Z,54.60
2018-04-02T23:17:52.658Z,55.00
2018-04-02T23:20:18.985Z,55.20
2018-04-02T23:22:52.184Z,55.20
2018-04-02T23:25:19.340Z,55.80
2018-04-02T23:27:45.662Z,55.10
2018-04-02T23:30:12.004Z,54.90
2018-04-02T23:32:38.662Z,54.80
2018-04-02T23:35:04.980Z,54.80
2018-04-02T23:37:31.372Z,54.80
2018-04-02T23:39:58.453Z,54.80
2018-04-02T23:42:25.748Z,54.90
2018-04-02T23:44:52.897Z,54.90
2018-04-02T23:47:19.948Z,55.30
2018-04-02T23:49:46.286Z,55.20
2018-04-02T23:52:13.644Z,55.50
2018-04-02T23:54:40.618Z,56.00
2018-04-02T23:57:06.921Z,55.80
2018-04-02T23:59:33.580Z,55.60
